Time;durP1;ratioP1;P1;durP2;ratioP2;P2;SDS_P1;SDS_P2;PMS_P1;PMS_P2;Temp;Humidity;BMP_temperature;BMP_pressure;BME280_temperature;BME280_humidity;BME280_pressure;Samples;Min_cycle;Max_cycle;Signal;HPM_P1;HPM_P2
2023/03/25 00:02:20;;;;;;;13.80;11.63;;;;;;;10.95;73.34;99265.78;5072496;28;20221;-67
2023/03/25 00:04:50;;;;;;;13.60;12.20;;;;;;;10.95;73.09;99260.47;5072510;28;20280;-67
2023/03/25 00:07:18;;;;;;;13.20;11.73;;;;;;;10.94;72.72;99267.63;5072527;28;20188;-68
2023/03/25 00:09:45;;;;;;;19.27;12.50;;;;;;;10.90;72.67;99260.25;5072090;28;20560;-68
2023/03/25 00:12:12;;;;;;;15.17;11.70;;;;;;;10.95;73.13;99266.59;5072005;28;20233;-68
2023/03/25 00:14:41;;;;;;;18.80;12.00;;;;;;;10.96;72.76;99254.13;5072016;28;20188;-68
2023/03/25 02:27:53;;;;;;;28.40;22.53;;;;;;;10.17;81.11;99176.19;5129431;27;20542;-72
2023/03/25 02:30:38;;;;;;;26.63;21.47;;;;;;;10.23;80.17;99166.63;5130578;28;20263;-72
2023/03/25 02:33:28;;;;;;;24.27;20.50;;;;;;;10.25;80.15;99162.72;5126775;27;20206;-72
2023/03/25 02:36:20;;;;;;;57.40;21.80;;;;;;;10.28;79.62;99161.50;5078958;28;20218;-72
2023/03/25 02:38:51;;;;;;;44.50;22.17;;;;;;;10.27;79.37;99162.53;5108790;28;20197;-71
2023/03/25 02:41:24;;;;;;;31.27;21.37;;;;;;;10.28;79.76;99158.84;5109610;28;20248;-71
2023/03/25 02:43:54;;;;;;;31.90;20.93;;;;;;;10.23;79.49;99169.28;5108363;28;20187;-71
2023/03/25 02:46:23;;;;;;;26.07;21.80;;;;;;;10.24;79.07;99165.59;5109086;28;20195;-70
2023/03/25 02:48:54;;;;;;;25.10;19.90;;;;;;;10.15;79.06;99161.50;5109203;28;20243;-70
2023/03/25 02:51:28;;;;;;;23.50;20.23;;;;;;;10.02;80.04;99150.81;5118588;28;20190;-70
2023/03/25 02:53:58;;;;;;;39.10;24.03;;;;;;;10.03;79.99;99152.44;5129722;28;20193;-70
2023/03/25 02:56:28;;;;;;;35.03;24.13;;;;;;;9.92;81.09;99150.38;5129680;28;20225;-70
2023/03/25 02:58:56;;;;;;;47.60;27.57;;;;;;;9.86;80.61;99152.00;5129554;28;20281;-70
2023/03/25 03:01:25;;;;;;;41.63;27.90;;;;;;;9.85;80.85;99142.41;5129583;28;20186;-70
2023/03/25 03:03:52;;;;;;;38.80;24.23;;;;;;;9.93;80.49;99141.41;5128125;28;20190;-69
2023/03/25 03:06:21;;;;;;;31.97;23.60;;;;;;;9.96;80.24;99143.66;5129654;28;20266;-71
2023/03/25 03:09:06;;;;;;;28.27;22.13;;;;;;;9.96;79.44;99138.34;5128906;28;20187;-70
2023/03/25 03:11:47;;;;;;;28.30;21.17;;;;;;;9.94;79.13;99132.44;5127698;28;20265;-70
2023/03/25 03:14:44;;;;;;;34.07;21.90;;;;;;;9.93;79.48;99131.59;5127635;28;20186;-70
2023/03/25 03:17:18;;;;;;;27.57;19.93;;;;;;;9.81;80.00;99121.78;5127882;28;20277;-70
2023/03/25 03:19:50;;;;;;;26.27;20.53;;;;;;;9.84;80.36;99126.69;5128952;28;20242;-70
2023/03/25 03:22:33;;;;;;;27.70;19.83;;;;;;;9.85;80.21;99128.34;5129084;28;20231;-70
2023/03/25 03:25:07;;;;;;;20.07;17.93;;;;;;;9.77;79.53;99121.34;5127551;28;20188;-71
2023/03/25 03:27:38;;;;;;;26.27;19.03;;;;;;;9.77;79.99;99120.56;5120745;28;20187;-70
2023/03/25 03:30:10;;;;;;;28.77;19.83;;;;;;;9.74;80.33;99118.31;5113673;28;20574;-71
2023/03/25 03:32:42;;;;;;;25.63;18.97;;;;;;;9.76;79.67;99113.63;5115464;28;20186;-71
2023/03/25 03:35:15;;;;;;;24.23;19.13;;;;;;;9.75;80.17;99106.66;5115157;28;20211;-71
2023/03/25 03:37:47;;;;;;;21.57;19.07;;;;;;;9.75;79.82;99114.63;5114900;28;20726;-71
2023/03/25 03:40:19;;;;;;;20.07;17.90;;;;;;;9.71;80.36;99116.88;5115537;28;20266;-70
2023/03/25 03:42:51;;;;;;;21.73;17.53;;;;;;;9.67;79.79;99118.28;5115112;28;20183;-70
2023/03/25 03:45:23;;;;;;;19.90;17.77;;;;;;;9.65;80.37;99127.44;5114944;28;20187;-70
2023/03/25 03:47:54;;;;;;;20.97;17.27;;;;;;;9.59;80.53;99122.94;5114844;28;20578;-71
2023/03/25 03:50:26;;;;;;;24.37;17.77;;;;;;;9.56;79.59;99126.81;5114920;28;20182;-71
2023/03/25 03:53:01;;;;;;;24.60;17.03;;;;;;;9.56;80.92;99128.66;5114574;28;20259;-71
2023/03/25 03:55:36;;;;;;;19.97;15.60;;;;;;;9.56;80.03;99118.84;5114952;28;20619;-71
2023/03/25 03:58:08;;;;;;;27.00;14.93;;;;;;;9.62;80.34;99117.25;5114693;28;20210;-71
2023/03/25 04:00:42;;;;;;;21.63;14.23;;;;;;;9.58;79.70;99102.75;5114250;28;20187;-71
2023/03/25 04:03:14;;;;;;;19.97;15.03;;;;;;;9.65;79.27;99111.53;5113635;28;20181;-71
2023/03/25 04:05:48;;;;;;;17.67;15.20;;;;;;;9.61;79.32;99116.41;5113416;28;20578;-70
2023/03/25 04:08:22;;;;;;;18.90;15.67;;;;;;;9.61;80.50;99116.41;5114343;28;20194;-72
2023/03/25 04:10:57;;;;;;;27.17;16.37;;;;;;;9.55;81.01;99121.69;5114646;28;20242;-71
2023/03/25 04:13:28;;;;;;;18.07;15.47;;;;;;;9.37;80.59;99090.44;5114126;28;20698;-71
2023/03/25 04:15:59;;;;;;;17.47;15.53;;;;;;;9.59;80.67;99109.69;5113827;28;20682;-71
2023/03/25 04:18:27;;;;;;;20.93;15.37;;;;;;;9.62;80.55;99119.88;5113824;28;20228;-70
2023/03/25 04:20:54;;;;;;;20.87;16.17;;;;;;;9.63;79.79;99124.16;5113900;28;20213;-70
2023/03/25 04:23:21;;;;;;;17.90;15.67;;;;;;;9.57;80.12;99131.13;5113848;28;20199;-70
2023/03/25 04:25:48;;;;;;;22.97;16.13;;;;;;;9.52;80.63;99133.50;5113447;28;20225;-70
2023/03/25 04:28:16;;;;;;;25.43;19.03;;;;;;;9.55;80.91;99142.91;5113429;28;20190;-71
2023/03/25 04:30:45;;;;;;;31.80;21.83;;;;;;;9.53;80.04;99135.19;5113397;28;20277;-70
2023/03/25 04:33:12;;;;;;;46.53;29.97;;;;;;;9.52;79.93;99133.50;5110853;28;20298;-70
2023/03/25 04:35:39;;;;;;;32.47;21.47;;;;;;;9.50;79.31;99140.03;5113276;28;20198;-72
2023/03/25 04:38:06;;;;;;;25.80;19.37;;;;;;;9.54;79.55;99130.66;5113203;28;20582;-72
2023/03/25 04:40:33;;;;;;;24.53;18.40;;;;;;;9.61;80.07;99132.31;5112432;28;20248;-71
2023/03/25 04:43:00;;;;;;;22.30;17.80;;;;;;;9.86;79.55;99137.94;5113118;28;20751;-72
2023/03/25 04:45:29;;;;;;;21.17;16.40;;;;;;;10.13;77.88;99137.00;5113338;28;20182;-71
2023/03/25 04:47:56;;;;;;;23.73;16.57;;;;;;;10.37;76.42;99142.53;5113005;28;20814;-71
2023/03/25 04:50:25;;;;;;;21.23;16.27;;;;;;;10.60;76.60;99147.44;5112939;28;20190;-70
2023/03/25 04:52:52;;;;;;;23.40;17.70;;;;;;;10.92;75.24;99150.06;5110477;28;20565;-70
2023/03/25 04:55:20;;;;;;;30.63;17.47;;;;;;;11.19;73.81;99160.69;5110098;28;20183;-70
2023/03/25 04:57:47;;;;;;;23.30;17.27;;;;;;;11.56;72.96;99158.09;5113098;28;20589;-71
2023/03/25 05:00:15;;;;;;;22.87;17.53;;;;;;;11.82;70.77;99158.03;5113160;28;20671;-71
2023/03/25 05:02:45;;;;;;;22.13;18.17;;;;;;;11.96;69.68;99158.78;5110889;28;20237;-71
2023/03/25 05:05:17;;;;;;;25.00;17.33;;;;;;;12.19;69.65;99153.72;5113036;28;20195;-70
2023/03/25 05:07:46;;;;;;;24.37;17.30;;;;;;;12.74;68.20;99153.72;5113198;28;20188;-70
2023/03/25 05:10:13;;;;;;;23.60;17.10;;;;;;;13.09;66.33;99168.22;5112952;28;20200;-70
2023/03/25 05:12:40;;;;;;;28.00;17.17;;;;;;;13.40;65.19;99160.06;5109911;28;20185;-69
2023/03/25 05:15:08;;;;;;;18.93;16.57;;;;;;;13.62;64.61;99171.94;5112536;28;20620;-70
2023/03/25 05:17:35;;;;;;;36.00;15.80;;;;;;;14.13;62.57;99166.19;5112777;28;20215;-69
2023/03/25 05:20:05;;;;;;;15.47;13.87;;;;;;;14.79;60.36;99174.84;5112786;28;20198;-68
2023/03/25 05:22:31;;;;;;;14.30;12.33;;;;;;;15.26;57.12;99174.66;5112504;28;20191;-68
2023/03/25 05:25:01;;;;;;;20.23;13.20;;;;;;;15.37;57.74;99165.84;5112493;28;20187;-70
2023/03/25 05:27:29;;;;;;;13.07;10.77;;;;;;;15.71;56.04;99175.66;5112825;28;20744;-69
2023/03/25 05:29:57;;;;;;;15.27;11.40;;;;;;;16.05;54.42;99155.16;5112531;28;20574;-70
2023/03/25 05:32:24;;;;;;;18.90;11.37;;;;;;;16.52;53.22;99158.47;5112623;28;20182;-68
2023/03/25 05:34:52;;;;;;;13.27;10.90;;;;;;;17.00;50.35;99158.72;5111983;28;20667;-69
2023/03/25 05:37:20;;;;;;;11.53;10.63;;;;;;;17.13;50.66;99150.31;5112306;28;20214;-69
2023/03/25 05:39:47;;;;;;;11.90;10.67;;;;;;;17.02;51.21;99153.94;5112302;28;20243;-70
2023/03/25 05:42:14;;;;;;;11.20;10.13;;;;;;;16.92;50.01;99143.03;5111969;28;20556;-69
2023/03/25 05:44:49;;;;;;;12.83;10.50;;;;;;;16.60;51.16;99140.13;5109655;28;20248;-69
2023/03/25 05:47:16;;;;;;;10.87;9.80;;;;;;;16.70;50.46;99139.47;5112118;28;20186;-70
2023/03/25 05:49:43;;;;;;;12.80;10.63;;;;;;;16.50;51.99;99141.81;5111839;28;20190;-69
2023/03/25 05:52:10;;;;;;;15.37;12.67;;;;;;;16.45;51.29;99136.38;5111930;28;20270;-69
2023/03/25 05:54:40;;;;;;;12.23;10.27;;;;;;;16.57;52.29;99139.78;5111943;28;20197;-69
2023/03/25 05:57:07;;;;;;;15.23;10.73;;;;;;;17.01;51.30;99141.56;5111987;28;20310;-68
2023/03/25 05:59:37;;;;;;;28.83;11.10;;;;;;;17.49;49.28;99141.75;5112046;28;20244;-68
2023/03/25 06:02:06;;;;;;;11.63;10.53;;;;;;;17.48;48.44;99142.81;5109915;28;20273;-71
2023/03/25 06:04:36;;;;;;;12.20;10.93;;;;;;;17.03;49.77;99140.25;5111943;28;20248;-71
2023/03/25 06:07:08;;;;;;;13.57;11.80;;;;;;;17.11;49.74;99142.50;5109740;28;20279;-71
2023/03/25 06:09:35;;;;;;;14.70;11.27;;;;;;;17.23;49.32;99145.91;5112333;28;20186;-71
2023/03/25 06:12:04;;;;;;;17.27;12.17;;;;;;;17.28;48.47;99132.59;5112054;28;20622;-70
2023/03/25 06:14:30;;;;;;;18.90;11.97;;;;;;;17.06;53.26;99142.44;5112396;28;20252;-70
2023/03/25 06:16:57;;;;;;;16.90;15.17;;;;;;;17.07;50.76;99151.31;5112088;28;20218;-69
2023/03/25 06:19:25;;;;;;;12.97;11.77;;;;;;;17.08;50.25;99144.88;5111829;28;20194;-65
2023/03/25 06:21:53;;;;;;;16.97;12.63;;;;;;;16.86;50.90;99149.38;5112155;28;20659;-67
2023/03/25 06:24:21;;;;;;;13.23;11.53;;;;;;;16.41;53.04;99127.97;5112117;28;20191;-68
2023/03/25 06:26:47;;;;;;;12.83;11.57;;;;;;;16.75;54.50;99126.13;5111056;28;20226;-67
2023/03/25 06:29:15;;;;;;;10.80;9.80;;;;;;;17.77;52.51;99133.50;5112241;28;20612;-68
2023/03/25 06:31:42;;;;;;;12.10;10.07;;;;;;;18.00;47.31;99141.28;5111195;28;20759;-66
2023/03/25 06:34:09;;;;;;;12.10;11.00;;;;;;;18.76;51.11;99135.59;5111794;28;20220;-64
2023/03/25 06:36:36;;;;;;;22.37;11.30;;;;;;;19.29;44.31;99136.28;5112057;28;20648;-63
2023/03/25 06:39:05;;;;;;;16.47;14.70;;;;;;;19.75;50.16;99123.81;5112070;28;20257;-64
2023/03/25 06:41:34;;;;;;;20.70;14.60;;;;;;;20.43;47.49;99120.81;5112069;28;20198;-63
2023/03/25 06:44:01;;;;;;;11.87;10.70;;;;;;;20.99;40.02;99135.94;5111909;28;20690;-70
2023/03/25 06:46:29;;;;;;;18.73;12.37;;;;;;;21.35;48.09;99123.97;5105477;28;20633;-71
2023/03/25 06:48:56;;;;;;;20.47;11.20;;;;;;;21.91;42.16;99130.84;5106481;28;20199;-69
2023/03/25 06:51:23;;;;;;;12.93;9.30;;;;;;;22.81;40.50;99127.56;5103209;28;20256;-69
2023/03/25 06:53:49;;;;;;;14.30;9.33;;;;;;;23.58;38.84;99121.91;5111266;28;20190;-70
2023/03/25 06:56:16;;;;;;;10.10;9.30;;;;;;;23.65;34.16;99138.63;5111788;28;20195;-68
2023/03/25 06:58:43;;;;;;;25.85;14.30;;;;;;;23.07;34.42;99130.84;5110674;28;20469;-71
2023/03/25 07:01:11;;;;;;;11.30;10.10;;;;;;;22.55;35.10;99133.44;5111931;28;20200;-70
2023/03/25 07:03:39;;;;;;;9.67;8.77;;;;;;;22.42;41.01;99123.22;5101733;28;20223;-70
2023/03/25 07:06:07;;;;;;;12.70;9.77;;;;;;;22.96;36.50;99124.72;5095305;28;20194;-68
2023/03/25 07:08:35;;;;;;;10.87;9.77;;;;;;;22.56;36.48;99116.09;5095284;28;20201;-69
2023/03/25 07:11:02;;;;;;;62.90;12.53;;;;;;;22.30;36.02;99118.16;5094856;28;20202;-69
2023/03/25 07:13:30;;;;;;;16.17;8.87;;;;;;;22.13;37.89;99109.59;5095152;28;20194;-69
2023/03/25 07:15:56;;;;;;;9.07;8.13;;;;;;;22.63;39.23;99114.72;5094852;28;20195;-69
2023/03/25 07:18:23;;;;;;;40.03;10.43;;;;;;;22.91;36.48;99113.91;5094844;28;20215;-70
2023/03/25 07:20:51;;;;;;;9.47;8.67;;;;;;;22.42;36.07;99113.19;5099558;28;20225;-68
2023/03/25 07:23:18;;;;;;;8.83;8.13;;;;;;;22.06;35.89;99108.31;5100657;28;20259;-69
2023/03/25 07:25:45;;;;;;;8.83;8.07;;;;;;;22.23;35.98;99120.38;5107591;28;20267;-69
2023/03/25 07:28:11;;;;;;;8.30;7.30;;;;;;;22.44;37.84;99118.34;5107016;28;20229;-68
2023/03/25 07:30:38;;;;;;;9.77;7.90;;;;;;;22.85;35.36;99123.19;5111667;28;20751;-69
2023/03/25 07:33:05;;;;;;;23.57;8.63;;;;;;;23.11;36.88;99115.63;5114599;28;20194;-68
2023/03/25 07:35:32;;;;;;;11.87;8.10;;;;;;;23.57;35.27;99109.44;5113019;28;20195;-70
2023/03/25 07:38:00;;;;;;;8.83;8.23;;;;;;;23.22;33.86;99112.56;5112444;28;20648;-67
2023/03/25 07:40:26;;;;;;;8.80;8.00;;;;;;;23.36;33.96;99110.78;5114500;28;20666;-68
2023/03/25 07:42:53;;;;;;;9.20;8.37;;;;;;;23.26;33.42;99110.91;5114976;28;20649;-68
2023/03/25 07:45:20;;;;;;;9.53;8.00;;;;;;;22.80;34.46;99104.28;5115019;28;20190;-67
2023/03/25 07:47:49;;;;;;;13.07;8.50;;;;;;;22.88;35.54;99106.38;5114705;28;20191;-68
2023/03/25 07:50:16;;;;;;;8.40;7.90;;;;;;;22.66;34.69;99092.47;5114831;28;20198;-67
2023/03/25 07:52:43;;;;;;;8.30;7.73;;;;;;;22.34;35.06;99097.56;5114352;28;20187;-67
2023/03/25 07:55:12;;;;;;;8.30;7.70;;;;;;;22.26;36.04;99092.72;5113774;28;20191;-67
2023/03/25 07:57:40;;;;;;;8.40;7.60;;;;;;;22.47;36.79;99093.44;5114201;28;20600;-67
2023/03/25 08:00:09;;;;;;;7.70;7.13;;;;;;;22.96;35.30;99085.97;5113580;28;20187;-68
2023/03/25 08:02:36;;;;;;;8.60;7.60;;;;;;;23.47;34.57;99081.63;5111847;28;20195;-68
2023/03/25 08:05:04;;;;;;;8.60;7.90;;;;;;;23.34;33.74;99085.03;5112112;28;20275;-68
2023/03/25 08:07:31;;;;;;;7.80;7.30;;;;;;;23.58;33.40;99083.97;5111299;28;20203;-67
2023/03/25 08:09:58;;;;;;;8.33;7.60;;;;;;;23.71;32.80;99077.81;5113177;28;20675;-67
2023/03/25 08:12:26;;;;;;;8.00;7.30;;;;;;;23.80;32.51;99070.63;5114223;28;20264;-67
2023/03/25 08:14:52;;;;;;;10.83;7.53;;;;;;;24.32;32.98;99073.19;5113555;28;20188;-67
2023/03/25 08:17:19;;;;;;;7.60;6.97;;;;;;;24.75;31.88;99071.94;5113592;28;20224;-67
2023/03/25 08:19:46;;;;;;;7.47;6.87;;;;;;;24.85;31.63;99071.78;5114074;28;20257;-66
2023/03/25 08:22:12;;;;;;;8.60;7.60;;;;;;;25.09;31.50;99071.59;5113598;28;20190;-66
2023/03/25 08:24:39;;;;;;;7.90;6.97;;;;;;;25.45;30.29;99079.91;5113386;28;20750;-67
2023/03/25 08:27:06;;;;;;;8.00;7.50;;;;;;;24.93;30.18;99056.69;5114145;28;20659;-67
2023/03/25 08:29:34;;;;;;;9.73;7.97;;;;;;;24.69;31.06;99078.56;5114195;28;20252;-66
2023/03/25 08:32:01;;;;;;;7.40;6.90;;;;;;;24.36;31.44;99068.78;5113719;28;20203;-68
2023/03/25 08:34:27;;;;;;;8.13;7.63;;;;;;;24.18;31.60;99066.84;5114180;28;20188;-67
2023/03/25 08:36:54;;;;;;;10.60;6.70;;;;;;;24.14;32.50;99071.25;5114054;28;20345;-68
2023/03/25 08:39:28;;;;;;;7.63;6.93;;;;;;;24.04;32.71;99068.72;5113937;28;20245;-68
2023/03/25 08:41:56;;;;;;;8.30;7.20;;;;;;;23.90;33.10;99064.28;5113525;28;20668;-67
2023/03/25 08:44:22;;;;;;;16.40;9.80;;;;;;;23.48;33.06;99062.38;5113507;28;20253;-67
2023/03/25 08:46:50;;;;;;;7.37;6.90;;;;;;;23.68;33.31;99061.34;5113405;28;20664;-68
2023/03/25 08:49:17;;;;;;;7.67;6.97;;;;;;;23.74;33.31;99052.84;5114034;28;20191;-67
2023/03/25 08:51:44;;;;;;;6.80;6.30;;;;;;;23.87;32.85;99049.41;5113348;28;20198;-67
2023/03/25 08:54:10;;;;;;;6.67;6.27;;;;;;;23.76;32.87;99045.19;5113443;28;20613;-67
2023/03/25 08:56:37;;;;;;;7.33;6.83;;;;;;;23.71;33.47;99037.13;5113550;28;20195;-68
2023/03/25 08:59:04;;;;;;;8.33;6.30;;;;;;;23.86;32.75;99034.22;5113527;28;20215;-67
2023/03/25 09:01:30;;;;;;;6.40;5.87;;;;;;;23.94;32.66;99030.84;5113167;28;20192;-67
2023/03/25 09:03:58;;;;;;;11.40;8.33;;;;;;;24.19;32.27;99035.94;5113129;28;20729;-67
2023/03/25 09:06:25;;;;;;;9.93;7.43;;;;;;;24.32;31.96;99013.44;5113413;28;20197;-67
2023/03/25 09:08:54;;;;;;;18.27;8.13;;;;;;;24.68;31.90;99024.53;5113248;28;20232;-67
2023/03/25 09:11:21;;;;;;;8.50;7.90;;;;;;;24.64;31.55;99013.47;5113424;28;20278;-67
2023/03/25 09:13:48;;;;;;;9.00;8.07;;;;;;;24.79;30.92;99010.47;5113240;28;20253;-66
2023/03/25 09:16:15;;;;;;;10.23;8.33;;;;;;;24.87;31.00;98998.13;5113305;28;20197;-67
2023/03/25 09:18:41;;;;;;;9.60;8.37;;;;;;;25.23;30.20;98995.50;5112782;28;20582;-67
2023/03/25 09:21:09;;;;;;;8.83;8.10;;;;;;;25.48;29.27;98997.72;5112922;28;20547;-67
2023/03/25 09:23:36;;;;;;;8.77;7.90;;;;;;;25.59;30.35;98989.03;5112734;28;20249;-66
2023/03/25 09:26:04;;;;;;;8.37;7.67;;;;;;;25.88;29.19;98986.72;5112088;28;20229;-66
2023/03/25 09:28:31;;;;;;;9.47;8.53;;;;;;;25.72;28.90;98971.06;5112901;28;20198;-66
2023/03/25 09:30:58;;;;;;;8.83;8.13;;;;;;;25.50;29.64;98979.16;5112634;28;20244;-66
2023/03/25 09:33:26;;;;;;;9.20;8.40;;;;;;;25.65;29.60;98976.13;5112915;28;20266;-66
2023/03/25 09:35:53;;;;;;;14.63;9.43;;;;;;;25.89;29.80;98976.66;5112906;28;20194;-67
2023/03/25 09:38:21;;;;;;;8.87;8.10;;;;;;;26.19;29.09;98973.22;5112862;28;20218;-67
2023/03/25 09:40:48;;;;;;;8.20;7.63;;;;;;;26.35;28.27;98974.44;5113164;28;20247;-66
2023/03/25 09:43:29;;;;;;;14.97;8.53;;;;;;;26.17;28.31;98967.28;5112385;28;20194;-66
2023/03/25 09:45:57;;;;;;;8.20;7.50;;;;;;;26.02;28.62;98964.94;5112706;28;20186;-66
2023/03/25 09:48:30;;;;;;;9.47;8.50;;;;;;;25.68;29.11;98964.63;5112226;28;20255;-67
2023/03/25 09:51:00;;;;;;;10.23;9.27;;;;;;;25.39;29.13;98954.09;5112718;28;20190;-67
2023/03/25 09:53:35;;;;;;;10.17;9.17;;;;;;;25.60;29.76;98957.19;5112201;28;20247;-67
2023/03/25 09:56:04;;;;;;;10.40;8.27;;;;;;;25.82;29.53;98949.06;5112666;28;20242;-68
2023/03/25 09:58:40;;;;;;;9.93;8.70;;;;;;;25.69;29.23;98944.47;5112500;28;20263;-67
2023/03/25 10:01:19;;;;;;;21.10;9.40;;;;;;;25.86;29.13;98939.16;5112152;28;20640;-67
2023/03/25 10:04:02;;;;;;;11.90;8.77;;;;;;;25.90;29.51;98937.44;5112442;28;20178;-67
2023/03/25 10:06:32;;;;;;;11.37;10.13;;;;;;;26.07;29.33;98932.94;5112603;28;20186;-67
2023/03/25 10:09:25;;;;;;;9.83;8.90;;;;;;;26.19;29.17;98929.66;5111927;28;20739;-67
2023/03/25 10:12:01;;;;;;;10.37;9.33;;;;;;;26.09;29.61;98922.53;5112118;28;20644;-67
2023/03/25 10:14:33;;;;;;;9.97;8.90;;;;;;;26.24;28.87;98905.00;5112311;28;20190;-67
2023/03/25 10:17:11;;;;;;;9.23;8.30;;;;;;;26.18;28.72;98906.25;5112417;28;20250;-67
2023/03/25 10:19:56;;;;;;;12.83;9.63;;;;;;;26.44;28.37;98902.56;5111922;28;20178;-67
2023/03/25 10:22:28;;;;;;;15.07;9.83;;;;;;;26.29;28.47;98889.34;5112385;28;20224;-67
2023/03/25 10:24:59;;;;;;;9.93;9.00;;;;;;;26.29;28.87;98883.91;5112204;28;20183;-67
2023/03/25 10:27:34;;;;;;;9.43;8.07;;;;;;;26.45;28.60;98873.41;5112162;28;20287;-67
2023/03/25 10:30:09;;;;;;;9.00;8.40;;;;;;;26.74;28.03;98874.50;5112392;28;20194;-66
2023/03/25 10:32:40;;;;;;;13.73;8.47;;;;;;;26.64;27.89;98863.09;5112054;28;20265;-66
2023/03/25 10:35:14;;;;;;;8.43;7.87;;;;;;;26.56;28.08;98861.91;5112073;28;20236;-66
2023/03/25 10:37:41;;;;;;;11.37;8.33;;;;;;;26.55;28.24;98859.50;5113167;28;20291;-67
2023/03/25 10:40:19;;;;;;;9.63;8.40;;;;;;;26.64;28.02;98846.75;5116222;28;20186;-67
2023/03/25 10:42:58;;;;;;;9.03;7.67;;;;;;;26.81;27.59;98846.78;5116154;28;20322;-67
2023/03/25 10:45:26;;;;;;;7.90;7.27;;;;;;;26.87;27.44;98838.13;5115800;28;20183;-67
2023/03/25 10:47:58;;;;;;;17.33;9.13;;;;;;;27.02;27.42;98837.69;5115548;28;20198;-67
2023/03/25 10:50:25;;;;;;;7.50;7.07;;;;;;;27.12;27.63;98831.91;5116124;28;20240;-67
2023/03/25 10:52:54;;;;;;;7.33;6.93;;;;;;;27.09;27.09;98832.56;5115517;28;20197;-67
2023/03/25 10:55:25;;;;;;;11.87;10.80;;;;;;;27.14;27.25;98835.13;5116049;28;20186;-67
2023/03/25 10:57:53;;;;;;;9.93;7.80;;;;;;;27.16;27.23;98826.63;5115390;28;20683;-67
2023/03/25 11:00:23;;;;;;;7.70;6.83;;;;;;;27.10;27.29;98827.91;5115774;28;20247;-67
2023/03/25 11:02:50;;;;;;;8.20;7.40;;;;;;;26.99;27.28;98818.44;5115510;28;20281;-68
2023/03/25 11:05:20;;;;;;;7.97;7.17;;;;;;;26.75;26.87;98772.53;5115798;28;20212;-67
2023/03/25 11:07:51;;;;;;;30.30;7.93;;;;;;;26.96;26.81;98810.91;5115284;28;20675;-67
2023/03/25 11:10:21;;;;;;;9.77;7.13;;;;;;;26.82;27.58;98810.25;5115509;28;20194;-67
2023/03/25 11:12:51;;;;;;;7.47;6.80;;;;;;;26.71;28.62;98798.03;5115594;28;20186;-67
2023/03/25 11:15:22;;;;;;;7.60;6.90;;;;;;;26.84;27.87;98802.53;5115091;28;20635;-67
2023/03/25 11:17:58;;;;;;;10.67;9.60;;;;;;;26.94;27.58;98796.78;5115247;28;20182;-67
2023/03/25 11:20:29;;;;;;;7.73;6.93;;;;;;;26.95;27.71;98799.19;5115546;28;20190;-66
2023/03/25 11:23:03;;;;;;;8.17;7.57;;;;;;;27.07;28.25;98790.38;5115005;28;20195;-66
2023/03/25 11:25:33;;;;;;;10.43;7.60;;;;;;;27.14;27.64;98777.06;5114834;28;20756;-66
2023/03/25 11:28:11;;;;;;;24.93;8.20;;;;;;;27.03;28.01;98776.56;5115283;28;20194;-67
2023/03/25 11:30:58;;;;;;;8.60;7.33;;;;;;;27.05;27.75;98770.81;5115367;28;20243;-66
2023/03/25 11:33:26;;;;;;;7.30;6.60;;;;;;;27.09;27.51;98760.88;5114532;28;20199;-66
2023/03/25 11:35:52;;;;;;;7.57;7.07;;;;;;;27.09;27.78;98767.13;5114676;28;20576;-66
2023/03/25 11:38:22;;;;;;;8.20;7.43;;;;;;;27.12;27.70;98758.28;5112847;28;20710;-66
2023/03/25 11:40:53;;;;;;;7.20;6.60;;;;;;;27.21;27.43;98747.41;5112484;28;20195;-67
2023/03/25 11:43:23;;;;;;;7.40;6.87;;;;;;;27.27;27.61;98751.59;5114243;28;20179;-67
2023/03/25 11:45:50;;;;;;;28.50;8.13;;;;;;;27.19;27.25;98730.56;5114871;28;20243;-66
2023/03/25 11:48:20;;;;;;;6.90;6.40;;;;;;;27.30;27.53;98740.03;5113947;28;20287;-67
2023/03/25 11:50:51;;;;;;;9.73;7.10;;;;;;;27.34;27.34;98727.34;5114798;28;20199;-66
2023/03/25 11:53:20;;;;;;;8.00;7.23;;;;;;;27.30;27.04;98726.38;5114229;28;20182;-66
2023/03/25 11:55:49;;;;;;;7.17;6.33;;;;;;;27.13;27.35;98726.38;5114310;28;20613;-66
2023/03/25 11:58:18;;;;;;;6.97;6.57;;;;;;;27.09;27.58;98711.78;5114792;28;20255;-66
2023/03/25 12:00:49;;;;;;;6.80;6.23;;;;;;;27.00;28.04;98708.28;5114144;28;20735;-66
2023/03/25 12:03:21;;;;;;;7.53;6.47;;;;;;;27.02;27.58;98706.00;5114307;28;20601;-66
2023/03/25 12:05:59;;;;;;;6.57;5.97;;;;;;;26.97;27.41;98698.00;5113715;28;20183;-66
2023/03/25 12:08:29;;;;;;;7.83;7.03;;;;;;;26.91;27.78;98697.34;5114628;28;20212;-65
2023/03/25 12:11:03;;;;;;;7.27;6.57;;;;;;;26.92;27.41;98690.00;5114052;28;20673;-66
2023/03/25 12:13:42;;;;;;;6.30;5.80;;;;;;;26.88;27.34;98689.03;5114491;28;20244;-66
2023/03/25 12:16:28;;;;;;;6.20;5.60;;;;;;;26.82;27.49;98673.97;5113636;28;20179;-66
2023/03/25 12:19:05;;;;;;;7.97;6.33;;;;;;;26.52;28.25;98674.88;5114142;28;20186;-66
2023/03/25 12:21:54;;;;;;;10.70;6.60;;;;;;;26.51;28.86;98673.28;5114289;28;20190;-66
2023/03/25 12:24:36;;;;;;;6.97;5.73;;;;;;;26.56;28.61;98673.94;5113849;28;20179;-66
2023/03/25 12:27:17;;;;;;;21.47;6.70;;;;;;;26.54;28.27;98667.19;5093755;28;20791;-66
2023/03/25 12:29:50;;;;;;;10.27;5.57;;;;;;;26.47;28.80;98667.69;5111855;28;20372;-66
2023/03/25 12:32:35;;;;;;;6.27;5.73;;;;;;;26.33;28.67;98671.66;5113755;28;20186;-66
2023/03/25 12:35:18;;;;;;;6.30;5.67;;;;;;;26.20;28.92;98661.69;5113714;28;20262;-65
2023/03/25 12:38:03;;;;;;;6.27;5.87;;;;;;;26.17;28.83;98662.34;5114046;28;20182;-67
2023/03/25 12:40:42;;;;;;;6.33;5.70;;;;;;;26.09;29.57;98654.94;5113311;28;20183;-67
2023/03/25 12:43:11;;;;;;;6.03;5.53;;;;;;;26.04;29.83;98653.16;5113278;28;20335;-66
2023/03/25 12:45:58;;;;;;;6.70;5.50;;;;;;;25.97;29.97;98647.38;5113470;28;20247;-67
2023/03/25 12:48:40;;;;;;;6.17;5.60;;;;;;;25.91;29.89;98642.38;5113807;28;20267;-67
2023/03/25 12:51:17;;;;;;;6.00;5.50;;;;;;;25.94;29.76;98630.88;5113578;28;20190;-66
2023/03/25 12:53:58;;;;;;;5.40;4.90;;;;;;;25.96;29.63;98629.44;5112787;28;20182;-66
2023/03/25 12:56:46;;;;;;;9.10;5.40;;;;;;;25.83;30.31;98619.47;5113239;28;20648;-66
2023/03/25 12:59:42;;;;;;;7.43;4.70;;;;;;;25.75;30.70;98605.81;5112860;28;20191;-66
2023/03/25 13:02:26;;;;;;;6.03;5.53;;;;;;;25.75;30.50;98611.25;5113053;28;20231;-67
2023/03/25 13:05:14;;;;;;;5.13;4.63;;;;;;;25.71;30.29;98607.56;5112649;28;20185;-65
2023/03/25 13:07:46;;;;;;;5.60;5.20;;;;;;;25.68;30.79;98600.06;5113065;28;20221;-66
2023/03/25 13:10:17;;;;;;;7.37;6.00;;;;;;;25.66;30.87;98599.56;5112832;28;20259;-66
2023/03/25 13:12:49;;;;;;;4.33;4.13;;;;;;;25.55;30.58;98600.97;5113364;28;20183;-66
2023/03/25 13:15:19;;;;;;;5.10;4.70;;;;;;;25.56;30.34;98597.91;5113117;28;20183;-66
2023/03/25 13:17:51;;;;;;;5.37;4.93;;;;;;;25.62;30.48;98591.25;5112088;28;20255;-66
2023/03/25 13:20:20;;;;;;;5.10;4.60;;;;;;;25.64;30.68;98601.81;5113186;28;20187;-67
2023/03/25 13:22:51;;;;;;;5.73;5.30;;;;;;;25.68;31.13;98595.41;5113004;28;20187;-65
2023/03/25 13:25:24;;;;;;;5.77;5.13;;;;;;;25.51;31.35;98576.31;5112298;28;20189;-66
2023/03/25 13:27:52;;;;;;;5.03;4.73;;;;;;;25.44;31.62;98583.34;5112715;28;20178;-67
2023/03/25 13:30:27;;;;;;;6.53;6.00;;;;;;;25.44;31.89;98577.91;5111824;28;20580;-67
2023/03/25 13:32:57;;;;;;;6.30;5.90;;;;;;;25.38;32.27;98579.13;5112697;28;20250;-67
2023/03/25 13:35:37;;;;;;;6.07;5.57;;;;;;;25.40;31.55;98587.78;5112990;28;20574;-66
2023/03/25 13:38:11;;;;;;;8.80;5.70;;;;;;;25.31;31.94;98586.97;5112786;28;20185;-66
2023/03/25 13:40:46;;;;;;;5.70;5.20;;;;;;;25.19;31.58;98564.97;5112725;28;20592;-66
2023/03/25 13:43:21;;;;;;;6.37;5.87;;;;;;;25.02;32.07;98570.31;5112262;28;20285;-67
2023/03/25 13:45:55;;;;;;;6.07;5.57;;;;;;;25.10;31.86;98566.84;5112737;28;20203;-66
2023/03/25 13:48:27;;;;;;;5.13;4.83;;;;;;;25.17;31.65;98567.19;5112618;28;20196;-65
2023/03/25 13:50:58;;;;;;;7.57;4.90;;;;;;;25.06;32.10;98571.31;5112247;28;20238;-66
2023/03/25 13:53:30;;;;;;;5.20;4.90;;;;;;;25.03;31.17;98565.34;5111816;28;20194;-65
2023/03/25 13:56:12;;;;;;;4.87;4.47;;;;;;;25.06;31.65;98576.75;5112124;28;20196;-66